sensor_id;sensor_type;location;lat;lon;timestamp;temperature;humidity
5834;DHT22;2943;48.012;10.968;2024-01-11T00:00:53;-3.70;99.90
5834;DHT22;2943;48.012;10.968;2024-01-11T00:03:20;-3.70;99.90
5834;DHT22;2943;48.012;10.968;2024-01-11T00:05:47;-3.80;99.90
5834;DHT22;2943;48.012;10.968;2024-01-11T00:08:13;-3.80;99.90
5834;DHT22;2943;48.012;10.968;2024-01-11T00:10:40;-3.80;99.90
5834;DHT22;2943;48.012;10.968;2024-01-11T00:13:07;-3.90;99.90
5834;DHT22;2943;48.012;10.968;2024-01-11T00:15:34;-3.90;99.90
5834;DHT22;2943;48.012;10.968;2024-01-11T00:18:02;-3.90;99.90
5834;DHT22;2943;48.012;10.968;2024-01-11T00:20:29;-3.90;99.90
5834;DHT22;2943;48.012;10.968;2024-01-11T00:22:56;-3.90;99.90
5834;DHT22;2943;48.012;10.968;2024-01-11T00:25:23;-4.00;99.90
5834;DHT22;2943;48.012;10.968;2024-01-11T00:27:50;-3.90;99.90
5834;DHT22;2943;48.012;10.968;2024-01-11T00:30:17;-3.90;99.90
5834;DHT22;2943;48.012;10.968;2024-01-11T00:32:44;-4.00;99.90
5834;DHT22;2943;48.012;10.968;2024-01-11T00:35:12;-4.00;99.90
5834;DHT22;2943;48.012;10.968;2024-01-11T00:37:39;-4.00;99.90
5834;DHT22;2943;48.012;10.968;2024-01-11T00:40:07;-4.00;99.90
5834;DHT22;2943;48.012;10.968;2024-01-11T00:42:34;-4.00;99.90
5834;DHT22;2943;48.012;10.968;2024-01-11T00:45:01;-4.10;99.90
5834;DHT22;2943;48.012;10.968;2024-01-11T00:47:28;-4.10;99.90
5834;DHT22;2943;48.012;10.968;2024-01-11T00:49:54;-4.20;99.90
5834;DHT22;2943;48.012;10.968;2024-01-11T00:52:23;-4.40;99.90
5834;DHT22;2943;48.012;10.968;2024-01-11T00:54:50;-4.40;99.90
5834;DHT22;2943;48.012;10.968;2024-01-11T00:57:16;-4.50;99.90
5834;DHT22;2943;48.012;10.968;2024-01-11T00:59:43;-4.50;99.90
5834;DHT22;2943;48.012;10.968;2024-01-11T01:02:10;-4.50;99.90
5834;DHT22;2943;48.012;10.968;2024-01-11T01:04:37;-4.50;99.90
5834;DHT22;2943;48.012;10.968;2024-01-11T01:07:04;-4.50;99.90
5834;DHT22;2943;48.012;10.968;2024-01-11T01:09:33;-4.50;99.90
5834;DHT22;2943;48.012;10.968;2024-01-11T01:12:00;-4.50;99.90
5834;DHT22;2943;48.012;10.968;2024-01-11T01:14:27;-4.50;99.90
5834;DHT22;2943;48.012;10.968;2024-01-11T01:16:54;-4.40;99.90
5834;DHT22;2943;48.012;10.968;2024-01-11T01:19:20;-4.40;99.90
5834;DHT22;2943;48.012;10.968;2024-01-11T01:21:47;-4.40;99.90
5834;DHT22;2943;48.012;10.968;2024-01-11T01:24:14;-4.40;99.90
5834;DHT22;2943;48.012;10.968;2024-01-11T01:26:42;-4.30;99.90
5834;DHT22;2943;48.012;10.968;2024-01-11T01:29:09;-4.30;99.90
5834;DHT22;2943;48.012;10.968;2024-01-11T01:31:38;-4.30;99.90
5834;DHT22;2943;48.012;10.968;2024-01-11T01:34:07;-4.30;99.90
5834;DHT22;2943;48.012;10.968;2024-01-11T01:36:33;-4.30;99.90
5834;DHT22;2943;48.012;10.968;2024-01-11T01:39:00;-4.30;99.90
5834;DHT22;2943;48.012;10.968;2024-01-11T01:41:30;-4.30;99.90
5834;DHT22;2943;48.012;10.968;2024-01-11T01:43:58;-4.30;99.90
5834;DHT22;2943;48.012;10.968;2024-01-11T01:46:26;-4.30;99.90
5834;DHT22;2943;48.012;10.968;2024-01-11T01:48:57;-4.30;99.90
5834;DHT22;2943;48.012;10.968;2024-01-11T01:51:26;-4.30;99.90
5834;DHT22;2943;48.012;10.968;2024-01-11T01:53:55;-4.30;99.90
5834;DHT22;2943;48.012;10.968;2024-01-11T01:56:23;-4.40;99.90
5834;DHT22;2943;48.012;10.968;2024-01-11T01:58:51;-4.40;99.90
5834;DHT22;2943;48.012;10.968;2024-01-11T02:01:22;-4.40;99.90
5834;DHT22;2943;48.012;10.968;2024-01-11T02:03:50;-4.40;99.90
5834;DHT22;2943;48.012;10.968;2024-01-11T02:06:18;-4.50;99.90
5834;DHT22;2943;48.012;10.968;2024-01-11T02:08:47;-4.40;99.90
5834;DHT22;2943;48.012;10.968;2024-01-11T02:11:15;-4.40;99.90
5834;DHT22;2943;48.012;10.968;2024-01-11T02:13:42;-4.40;99.90
5834;DHT22;2943;48.012;10.968;2024-01-11T02:16:10;-4.40;99.90
5834;DHT22;2943;48.012;10.968;2024-01-11T02:18:40;-4.50;99.90
5834;DHT22;2943;48.012;10.968;2024-01-11T02:21:09;-4.60;99.90
5834;DHT22;2943;48.012;10.968;2024-01-11T02:23:43;-4.70;99.90
5834;DHT22;2943;48.012;10.968;2024-01-11T02:26:13;-4.80;99.90
5834;DHT22;2943;48.012;10.968;2024-01-11T02:28:43;-4.80;99.90
5834;DHT22;2943;48.012;10.968;2024-01-11T02:31:10;-4.90;99.90
5834;DHT22;2943;48.012;10.968;2024-01-11T02:33:38;-4.90;99.90
5834;DHT22;2943;48.012;10.968;2024-01-11T02:36:05;-5.00;99.90
5834;DHT22;2943;48.012;10.968;2024-01-11T02:38:33;-5.00;99.90
5834;DHT22;2943;48.012;10.968;2024-01-11T02:41:00;-4.90;99.90
5834;DHT22;2943;48.012;10.968;2024-01-11T02:43:28;-4.90;99.90
5834;DHT22;2943;48.012;10.968;2024-01-11T02:45:55;-4.90;99.90
5834;DHT22;2943;48.012;10.968;2024-01-11T02:48:27;-4.90;99.90
5834;DHT22;2943;48.012;10.968;2024-01-11T02:50:55;-4.90;99.90
5834;DHT22;2943;48.012;10.968;2024-01-11T02:53:22;-4.90;99.90
5834;DHT22;2943;48.012;10.968;2024-01-11T02:55:49;-4.90;99.90
5834;DHT22;2943;48.012;10.968;2024-01-11T02:58:16;-4.90;99.90
5834;DHT22;2943;48.012;10.968;2024-01-11T03:00:45;-4.90;99.90
5834;DHT22;2943;48.012;10.968;2024-01-11T03:03:11;-4.90;99.90
5834;DHT22;2943;48.012;10.968;2024-01-11T03:05:38;-4.90;99.90
5834;DHT22;2943;48.012;10.968;2024-01-11T03:08:05;-4.90;99.90
5834;DHT22;2943;48.012;10.968;2024-01-11T03:10:32;-4.80;99.90
5834;DHT22;2943;48.012;10.968;2024-01-11T03:12:59;-4.80;99.90
5834;DHT22;2943;48.012;10.968;2024-01-11T03:15:26;-4.80;99.90
5834;DHT22;2943;48.012;10.968;2024-01-11T03:17:54;-4.70;99.90
5834;DHT22;2943;48.012;10.968;2024-01-11T03:20:21;-4.70;99.90
5834;DHT22;2943;48.012;10.968;2024-01-11T03:22:50;-4.70;99.90
5834;DHT22;2943;48.012;10.968;2024-01-11T03:25:17;-4.70;99.90
5834;DHT22;2943;48.012;10.968;2024-01-11T03:27:44;-4.60;99.90
5834;DHT22;2943;48.012;10.968;2024-01-11T03:30:12;-4.60;99.90
5834;DHT22;2943;48.012;10.968;2024-01-11T03:32:39;-4.60;99.90
5834;DHT22;2943;48.012;10.968;2024-01-11T03:35:07;-4.60;99.90
5834;DHT22;2943;48.012;10.968;2024-01-11T03:37:34;-4.60;99.90
5834;DHT22;2943;48.012;10.968;2024-01-11T03:40:02;-4.60;99.90
5834;DHT22;2943;48.012;10.968;2024-01-11T03:42:29;-4.60;99.90
5834;DHT22;2943;48.012;10.968;2024-01-11T03:44:56;-4.60;99.90
5834;DHT22;2943;48.012;10.968;2024-01-11T03:47:24;-4.50;99.90
5834;DHT22;2943;48.012;10.968;2024-01-11T03:49:51;-4.50;99.90
5834;DHT22;2943;48.012;10.968;2024-01-11T03:52:19;-4.50;99.90
5834;DHT22;2943;48.012;10.968;2024-01-11T03:54:46;-4.50;99.90
5834;DHT22;2943;48.012;10.968;2024-01-11T03:57:13;-4.50;99.90
5834;DHT22;2943;48.012;10.968;2024-01-11T03:59:40;-4.50;99.90
5834;DHT22;2943;48.012;10.968;2024-01-11T04:02:07;-4.50;99.90
5834;DHT22;2943;48.012;10.968;2024-01-11T04:04:34;-4.50;99.90
5834;DHT22;2943;48.012;10.968;2024-01-11T04:07:00;-4.50;99.90
5834;DHT22;2943;48.012;10.968;2024-01-11T04:09:29;-4.50;99.90
5834;DHT22;2943;48.012;10.968;2024-01-11T04:11:56;-4.60;99.90
5834;DHT22;2943;48.012;10.968;2024-01-11T04:14:22;-4.60;99.90
5834;DHT22;2943;48.012;10.968;2024-01-11T04:16:49;-4.60;99.90
5834;DHT22;2943;48.012;10.968;2024-01-11T04:19:16;-4.60;99.90
5834;DHT22;2943;48.012;10.968;2024-01-11T04:21:43;-4.50;99.90
5834;DHT22;2943;48.012;10.968;2024-01-11T04:24:10;-4.50;99.90
5834;DHT22;2943;48.012;10.968;2024-01-11T04:26:38;-4.50;99.90
5834;DHT22;2943;48.012;10.968;2024-01-11T04:29:05;-4.50;99.90
5834;DHT22;2943;48.012;10.968;2024-01-11T04:31:32;-4.50;99.90
5834;DHT22;2943;48.012;10.968;2024-01-11T04:34:00;-4.50;99.90
5834;DHT22;2943;48.012;10.968;2024-01-11T04:36:27;-4.50;99.90
5834;DHT22;2943;48.012;10.968;2024-01-11T04:38:55;-4.50;99.90
5834;DHT22;2943;48.012;10.968;2024-01-11T04:41:21;-4.50;99.90
5834;DHT22;2943;48.012;10.968;2024-01-11T04:43:50;-4.50;99.90
5834;DHT22;2943;48.012;10.968;2024-01-11T04:46:18;-4.50;99.90
5834;DHT22;2943;48.012;10.968;2024-01-11T04:48:46;-4.60;99.90
5834;DHT22;2943;48.012;10.968;2024-01-11T04:51:14;-4.50;99.90
5834;DHT22;2943;48.012;10.968;2024-01-11T04:53:41;-4.50;99.90
5834;DHT22;2943;48.012;10.968;2024-01-11T04:56:10;-4.50;99.90
5834;DHT22;2943;48.012;10.968;2024-01-11T04:58:39;-4.50;99.90
5834;DHT22;2943;48.012;10.968;2024-01-11T05:01:12;-4.60;99.90
5834;DHT22;2943;48.012;10.968;2024-01-11T05:03:40;-4.70;99.90
5834;DHT22;2943;48.012;10.968;2024-01-11T05:06:07;-4.90;99.90
5834;DHT22;2943;48.012;10.968;2024-01-11T05:08:36;-4.90;99.90
5834;DHT22;2943;48.012;10.968;2024-01-11T05:11:04;-4.90;99.90
5834;DHT22;2943;48.012;10.968;2024-01-11T05:13:31;-5.00;99.90
5834;DHT22;2943;48.012;10.968;2024-01-11T05:15:58;-4.90;99.90
5834;DHT22;2943;48.012;10.968;2024-01-11T05:18:26;-4.90;99.90
5834;DHT22;2943;48.012;10.968;2024-01-11T05:20:53;-4.90;99.90
5834;DHT22;2943;48.012;10.968;2024-01-11T05:23:20;-4.90;99.90
5834;DHT22;2943;48.012;10.968;2024-01-11T05:25:47;-4.90;99.90
5834;DHT22;2943;48.012;10.968;2024-01-11T05:28:13;-4.80;99.90
5834;DHT22;2943;48.012;10.968;2024-01-11T05:30:40;-4.90;99.90
5834;DHT22;2943;48.012;10.968;2024-01-11T05:33:07;-4.80;99.90
5834;DHT22;2943;48.012;10.968;2024-01-11T05:35:35;-4.80;99.90
5834;DHT22;2943;48.012;10.968;2024-01-11T05:38:02;-4.80;99.90
5834;DHT22;2943;48.012;10.968;2024-01-11T05:40:29;-4.70;99.90
5834;DHT22;2943;48.012;10.968;2024-01-11T05:42:56;-4.70;99.90
5834;DHT22;2943;48.012;10.968;2024-01-11T05:45:22;-4.70;99.90
5834;DHT22;2943;48.012;10.968;2024-01-11T05:47:49;-4.70;99.90
5834;DHT22;2943;48.012;10.968;2024-01-11T05:50:17;-4.70;99.90
5834;DHT22;2943;48.012;10.968;2024-01-11T05:52:48;-4.70;99.90
5834;DHT22;2943;48.012;10.968;2024-01-11T05:55:15;-4.70;99.90
5834;DHT22;2943;48.012;10.968;2024-01-11T05:57:41;-4.70;99.90
5834;DHT22;2943;48.012;10.968;2024-01-11T06:00:09;-4.70;99.90
5834;DHT22;2943;48.012;10.968;2024-01-11T06:02:36;-4.70;99.90
5834;DHT22;2943;48.012;10.968;2024-01-11T06:05:07;-4.70;99.90
5834;DHT22;2943;48.012;10.968;2024-01-11T06:07:34;-4.70;99.90
5834;DHT22;2943;48.012;10.968;2024-01-11T06:10:03;-4.70;99.90
5834;DHT22;2943;48.012;10.968;2024-01-11T06:12:32;-4.70;99.90
5834;DHT22;2943;48.012;10.968;2024-01-11T06:14:59;-4.70;99.90
5834;DHT22;2943;48.012;10.968;2024-01-11T06:17:26;-4.60;99.90
5834;DHT22;2943;48.012;10.968;2024-01-11T06:19:52;-4.70;99.90
5834;DHT22;2943;48.012;10.968;2024-01-11T06:22:20;-4.70;99.90
5834;DHT22;2943;48.012;10.968;2024-01-11T06:24:49;-4.70;99.90
5834;DHT22;2943;48.012;10.968;2024-01-11T06:27:17;-4.70;99.90
5834;DHT22;2943;48.012;10.968;2024-01-11T06:29:44;-4.70;99.90
5834;DHT22;2943;48.012;10.968;2024-01-11T06:32:11;-4.70;99.90
5834;DHT22;2943;48.012;10.968;2024-01-11T06:34:38;-4.70;99.90
5834;DHT22;2943;48.012;10.968;2024-01-11T06:37:07;-4.70;99.90
5834;DHT22;2943;48.012;10.968;2024-01-11T06:39:34;-4.70;99.90
5834;DHT22;2943;48.012;10.968;2024-01-11T06:42:04;-4.70;99.90
5834;DHT22;2943;48.012;10.968;2024-01-11T06:44:32;-4.70;99.90
5834;DHT22;2943;48.012;10.968;2024-01-11T06:47:04;-4.70;99.90
5834;DHT22;2943;48.012;10.968;2024-01-11T06:49:31;-4.70;99.90
5834;DHT22;2943;48.012;10.968;2024-01-11T06:51:58;-4.70;99.90
5834;DHT22;2943;48.012;10.968;2024-01-11T06:54:24;-4.70;99.90
5834;DHT22;2943;48.012;10.968;2024-01-11T06:56:51;-4.70;99.90
5834;DHT22;2943;48.012;10.968;2024-01-11T06:59:18;-4.70;99.90
5834;DHT22;2943;48.012;10.968;2024-01-11T07:01:46;-4.80;99.90
5834;DHT22;2943;48.012;10.968;2024-01-11T07:04:14;-4.70;99.90
5834;DHT22;2943;48.012;10.968;2024-01-11T07:06:41;-4.70;99.90
5834;DHT22;2943;48.012;10.968;2024-01-11T07:09:08;-4.70;99.90
5834;DHT22;2943;48.012;10.968;2024-01-11T07:11:36;-4.70;99.90
5834;DHT22;2943;48.012;10.968;2024-01-11T07:14:03;-4.70;99.90
5834;DHT22;2943;48.012;10.968;2024-01-11T07:16:30;-4.60;99.90
5834;DHT22;2943;48.012;10.968;2024-01-11T07:18:58;-4.60;99.90
5834;DHT22;2943;48.012;10.968;2024-01-11T07:21:25;-4.60;99.90
5834;DHT22;2943;48.012;10.968;2024-01-11T07:23:55;-4.60;99.90
5834;DHT22;2943;48.012;10.968;2024-01-11T07:26:23;-4.60;99.90
5834;DHT22;2943;48.012;10.968;2024-01-11T07:28:53;-4.60;99.90
5834;DHT22;2943;48.012;10.968;2024-01-11T07:31:21;-4.60;99.90
5834;DHT22;2943;48.012;10.968;2024-01-11T07:33:48;-4.60;99.90
5834;DHT22;2943;48.012;10.968;2024-01-11T07:36:17;-4.50;99.90
5834;DHT22;2943;48.012;10.968;2024-01-11T07:38:43;-4.50;99.90
5834;DHT22;2943;48.012;10.968;2024-01-11T07:41:10;-4.50;99.90
5834;DHT22;2943;48.012;10.968;2024-01-11T07:43:38;-4.50;99.90
5834;DHT22;2943;48.012;10.968;2024-01-11T07:46:07;-4.50;99.90
5834;DHT22;2943;48.012;10.968;2024-01-11T07:48:34;-4.50;99.90
5834;DHT22;2943;48.012;10.968;2024-01-11T07:51:00;-4.60;99.90
5834;DHT22;2943;48.012;10.968;2024-01-11T07:53:29;-4.60;99.90
5834;DHT22;2943;48.012;10.968;2024-01-11T07:55:57;-4.60;99.90
5834;DHT22;2943;48.012;10.968;2024-01-11T07:58:24;-4.60;99.90
5834;DHT22;2943;48.012;10.968;2024-01-11T08:00:51;-4.60;99.90
5834;DHT22;2943;48.012;10.968;2024-01-11T08:03:18;-4.60;99.90
5834;DHT22;2943;48.012;10.968;2024-01-11T08:05:44;-4.60;99.90
5834;DHT22;2943;48.012;10.968;2024-01-11T08:08:11;-4.60;99.90
5834;DHT22;2943;48.012;10.968;2024-01-11T08:10:39;-4.60;99.90
5834;DHT22;2943;48.012;10.968;2024-01-11T08:13:06;-4.60;99.90
5834;DHT22;2943;48.012;10.968;2024-01-11T08:15:35;-4.60;99.90
5834;DHT22;2943;48.012;10.968;2024-01-11T08:18:04;-4.70;99.90
5834;DHT22;2943;48.012;10.968;2024-01-11T08:20:31;-4.60;99.90
5834;DHT22;2943;48.012;10.968;2024-01-11T08:22:58;-4.60;99.90
5834;DHT22;2943;48.012;10.968;2024-01-11T08:25:25;-4.60;99.90
5834;DHT22;2943;48.012;10.968;2024-01-11T08:27:53;-4.60;99.90
5834;DHT22;2943;48.012;10.968;2024-01-11T08:30:20;-4.60;99.90
5834;DHT22;2943;48.012;10.968;2024-01-11T08:32:47;-4.70;99.90
5834;DHT22;2943;48.012;10.968;2024-01-11T08:35:14;-4.70;99.90
5834;DHT22;2943;48.012;10.968;2024-01-11T08:37:42;-4.70;99.90
5834;DHT22;2943;48.012;10.968;2024-01-11T08:40:09;-4.60;99.90
5834;DHT22;2943;48.012;10.968;2024-01-11T08:42:36;-4.60;99.90
5834;DHT22;2943;48.012;10.968;2024-01-11T08:45:06;-4.60;99.90
5834;DHT22;2943;48.012;10.968;2024-01-11T08:47:33;-4.50;99.90
5834;DHT22;2943;48.012;10.968;2024-01-11T08:50:00;-4.50;99.90
5834;DHT22;2943;48.012;10.968;2024-01-11T08:52:31;-4.40;99.90
5834;DHT22;2943;48.012;10.968;2024-01-11T08:54:58;-4.40;99.90
5834;DHT22;2943;48.012;10.968;2024-01-11T08:57:25;-4.30;99.90
5834;DHT22;2943;48.012;10.968;2024-01-11T08:59:52;-4.20;99.90
5834;DHT22;2943;48.012;10.968;2024-01-11T09:02:21;-4.20;99.90
5834;DHT22;2943;48.012;10.968;2024-01-11T09:04:48;-4.20;99.90
5834;DHT22;2943;48.012;10.968;2024-01-11T09:07:15;-4.10;99.90
5834;DHT22;2943;48.012;10.968;2024-01-11T09:09:42;-4.00;99.90
5834;DHT22;2943;48.012;10.968;2024-01-11T09:12:10;-4.00;99.90
5834;DHT22;2943;48.012;10.968;2024-01-11T09:14:37;-3.90;99.90
5834;DHT22;2943;48.012;10.968;2024-01-11T09:17:04;-3.90;99.90
5834;DHT22;2943;48.012;10.968;2024-01-11T09:19:33;-3.90;99.90
5834;DHT22;2943;48.012;10.968;2024-01-11T09:22:00;-3.80;99.90
5834;DHT22;2943;48.012;10.968;2024-01-11T09:24:27;-4.00;99.90
5834;DHT22;2943;48.012;10.968;2024-01-11T09:26:53;-4.00;99.90
5834;DHT22;2943;48.012;10.968;2024-01-11T09:29:20;-4.10;99.90
5834;DHT22;2943;48.012;10.968;2024-01-11T09:31:47;-4.10;99.90
5834;DHT22;2943;48.012;10.968;2024-01-11T09:34:15;-4.10;99.90
5834;DHT22;2943;48.012;10.968;2024-01-11T09:36:44;-4.10;99.90
5834;DHT22;2943;48.012;10.968;2024-01-11T09:39:11;-4.10;99.90
5834;DHT22;2943;48.012;10.968;2024-01-11T09:41:42;-4.10;99.90
5834;DHT22;2943;48.012;10.968;2024-01-11T09:44:10;-4.10;99.90
5834;DHT22;2943;48.012;10.968;2024-01-11T09:46:37;-4.00;99.90
5834;DHT22;2943;48.012;10.968;2024-01-11T09:49:04;-4.00;99.90
5834;DHT22;2943;48.012;10.968;2024-01-11T09:51:33;-4.00;99.90
5834;DHT22;2943;48.012;10.968;2024-01-11T09:54:03;-3.90;99.90
5834;DHT22;2943;48.012;10.968;2024-01-11T09:56:30;-3.80;99.90
5834;DHT22;2943;48.012;10.968;2024-01-11T09:58:58;-3.80;99.90
5834;DHT22;2943;48.012;10.968;2024-01-11T10:01:25;-3.70;99.90
5834;DHT22;2943;48.012;10.968;2024-01-11T10:03:53;-3.70;99.90
5834;DHT22;2943;48.012;10.968;2024-01-11T10:06:21;-3.70;99.90
5834;DHT22;2943;48.012;10.968;2024-01-11T10:08:50;-3.70;99.90
5834;DHT22;2943;48.012;10.968;2024-01-11T10:11:18;-3.70;99.90
5834;DHT22;2943;48.012;10.968;2024-01-11T10:13:46;-3.60;99.90
5834;DHT22;2943;48.012;10.968;2024-01-11T10:16:14;-3.60;99.90
5834;DHT22;2943;48.012;10.968;2024-01-11T10:18:41;-3.50;99.90
5834;DHT22;2943;48.012;10.968;2024-01-11T10:21:08;-3.50;99.90
5834;DHT22;2943;48.012;10.968;2024-01-11T10:23:35;-3.40;99.90
5834;DHT22;2943;48.012;10.968;2024-01-11T10:26:03;-3.40;99.90
5834;DHT22;2943;48.012;10.968;2024-01-11T10:28:38;-3.40;99.90
5834;DHT22;2943;48.012;10.968;2024-01-11T10:31:05;-3.30;99.90
5834;DHT22;2943;48.012;10.968;2024-01-11T10:33:33;-3.30;99.90
5834;DHT22;2943;48.012;10.968;2024-01-11T10:36:01;-3.30;99.90
5834;DHT22;2943;48.012;10.968;2024-01-11T10:38:30;-3.30;99.90
5834;DHT22;2943;48.012;10.968;2024-01-11T10:41:04;-3.30;99.90
5834;DHT22;2943;48.012;10.968;2024-01-11T10:43:36;-3.20;99.90
5834;DHT22;2943;48.012;10.968;2024-01-11T10:46:04;-3.20;99.90
5834;DHT22;2943;48.012;10.968;2024-01-11T10:48:38;-3.30;99.90
5834;DHT22;2943;48.012;10.968;2024-01-11T10:51:08;-3.30;99.90
5834;DHT22;2943;48.012;10.968;2024-01-11T10:53:42;-3.20;99.90
5834;DHT22;2943;48.012;10.968;2024-01-11T10:56:11;-3.10;99.90
5834;DHT22;2943;48.012;10.968;2024-01-11T10:58:45;-3.10;99.90
5834;DHT22;2943;48.012;10.968;2024-01-11T11:01:14;-3.00;99.90
5834;DHT22;2943;48.012;10.968;2024-01-11T11:03:44;-2.90;99.90
5834;DHT22;2943;48.012;10.968;2024-01-11T11:06:12;-2.90;99.90
5834;DHT22;2943;48.012;10.968;2024-01-11T11:08:40;-2.90;99.90
5834;DHT22;2943;48.012;10.968;2024-01-11T11:11:08;-2.90;99.90
5834;DHT22;2943;48.012;10.968;2024-01-11T11:13:36;-2.80;99.90
5834;DHT22;2943;48.012;10.968;2024-01-11T11:16:06;-2.80;99.90
5834;DHT22;2943;48.012;10.968;2024-01-11T11:18:34;-2.80;99.90
5834;DHT22;2943;48.012;10.968;2024-01-11T11:21:09;-2.70;99.90
5834;DHT22;2943;48.012;10.968;2024-01-11T11:23:37;-2.70;99.90
5834;DHT22;2943;48.012;10.968;2024-01-11T11:26:06;-2.60;99.90
5834;DHT22;2943;48.012;10.968;2024-01-11T11:28:34;-2.60;99.90
5834;DHT22;2943;48.012;10.968;2024-01-11T11:31:03;-2.60;99.90
5834;DHT22;2943;48.012;10.968;2024-01-11T11:33:31;-2.50;99.90
5834;DHT22;2943;48.012;10.968;2024-01-11T11:35:59;-2.60;99.90
5834;DHT22;2943;48.012;10.968;2024-01-11T11:38:27;-2.60;99.90
5834;DHT22;2943;48.012;10.968;2024-01-11T11:40:57;-2.70;99.90
5834;DHT22;2943;48.012;10.968;2024-01-11T11:43:26;-2.80;99.90
5834;DHT22;2943;48.012;10.968;2024-01-11T11:45:54;-2.90;99.90
5834;DHT22;2943;48.012;10.968;2024-01-11T11:48:54;-2.90;99.90
5834;DHT22;2943;48.012;10.968;2024-01-11T11:51:22;-2.80;99.90
5834;DHT22;2943;48.012;10.968;2024-01-11T11:53:51;-2.80;99.90
5834;DHT22;2943;48.012;10.968;2024-01-11T11:56:20;-2.70;99.90
5834;DHT22;2943;48.012;10.968;2024-01-11T11:58:48;-2.70;99.90
5834;DHT22;2943;48.012;10.968;2024-01-11T12:01:18;-2.60;99.90
5834;DHT22;2943;48.012;10.968;2024-01-11T12:03:46;-2.60;99.90
5834;DHT22;2943;48.012;10.968;2024-01-11T12:06:17;-2.60;99.90
5834;DHT22;2943;48.012;10.968;2024-01-11T12:08:46;-2.70;99.90
5834;DHT22;2943;48.012;10.968;2024-01-11T12:11:14;-2.70;99.90
5834;DHT22;2943;48.012;10.968;2024-01-11T12:13:42;-2.70;99.90
5834;DHT22;2943;48.012;10.968;2024-01-11T12:16:11;-2.70;99.90
5834;DHT22;2943;48.012;10.968;2024-01-11T12:18:38;-2.80;99.90
5834;DHT22;2943;48.012;10.968;2024-01-11T12:21:06;-2.80;99.90
5834;DHT22;2943;48.012;10.968;2024-01-11T12:23:36;-2.80;99.90
5834;DHT22;2943;48.012;10.968;2024-01-11T12:26:05;-2.90;99.90
5834;DHT22;2943;48.012;10.968;2024-01-11T12:28:38;-2.90;99.90
5834;DHT22;2943;48.012;10.968;2024-01-11T12:31:04;-2.90;99.90
5834;DHT22;2943;48.012;10.968;2024-01-11T12:33:32;-3.10;99.90
5834;DHT22;2943;48.012;10.968;2024-01-11T12:36:00;-3.20;99.90
5834;DHT22;2943;48.012;10.968;2024-01-11T12:38:28;-3.10;99.90
5834;DHT22;2943;48.012;10.968;2024-01-11T12:40:56;-3.10;99.90
5834;DHT22;2943;48.012;10.968;2024-01-11T12:43:23;-3.00;99.90
5834;DHT22;2943;48.012;10.968;2024-01-11T12:45:50;-3.10;99.90
5834;DHT22;2943;48.012;10.968;2024-01-11T12:48:17;-3.00;99.90
5834;DHT22;2943;48.012;10.968;2024-01-11T12:50:44;-3.00;99.90
5834;DHT22;2943;48.012;10.968;2024-01-11T12:53:11;-2.90;99.90
5834;DHT22;2943;48.012;10.968;2024-01-11T12:55:43;-2.80;99.90
5834;DHT22;2943;48.012;10.968;2024-01-11T12:58:11;-2.80;99.90
5834;DHT22;2943;48.012;10.968;2024-01-11T13:00:39;-2.70;99.90
5834;DHT22;2943;48.012;10.968;2024-01-11T13:03:08;-2.60;99.90
5834;DHT22;2943;48.012;10.968;2024-01-11T13:05:35;-2.50;99.90
5834;DHT22;2943;48.012;10.968;2024-01-11T13:08:07;-2.50;99.90
5834;DHT22;2943;48.012;10.968;2024-01-11T13:10:34;-2.40;99.90
5834;DHT22;2943;48.012;10.968;2024-01-11T13:13:02;-2.50;99.90
5834;DHT22;2943;48.012;10.968;2024-01-11T13:15:31;-2.50;99.90
5834;DHT22;2943;48.012;10.968;2024-01-11T13:17:59;-2.60;99.90
5834;DHT22;2943;48.012;10.968;2024-01-11T13:20:28;-2.50;99.90
5834;DHT22;2943;48.012;10.968;2024-01-11T13:23:11;-2.50;99.90
5834;DHT22;2943;48.012;10.968;2024-01-11T13:25:39;-2.60;99.90
5834;DHT22;2943;48.012;10.968;2024-01-11T13:28:05;-2.60;99.90
5834;DHT22;2943;48.012;10.968;2024-01-11T13:30:34;-2.60;99.90
5834;DHT22;2943;48.012;10.968;2024-01-11T13:33:03;-2.60;99.90
5834;DHT22;2943;48.012;10.968;2024-01-11T13:35:30;-2.60;99.90
5834;DHT22;2943;48.012;10.968;2024-01-11T13:37:57;-2.70;99.90
5834;DHT22;2943;48.012;10.968;2024-01-11T13:40:24;-2.70;99.90
5834;DHT22;2943;48.012;10.968;2024-01-11T13:42:53;-2.70;99.90
5834;DHT22;2943;48.012;10.968;2024-01-11T13:45:20;-2.80;99.90
5834;DHT22;2943;48.012;10.968;2024-01-11T13:47:48;-2.80;99.90
5834;DHT22;2943;48.012;10.968;2024-01-11T13:50:15;-2.80;99.90
5834;DHT22;2943;48.012;10.968;2024-01-11T13:52:44;-2.80;99.90
5834;DHT22;2943;48.012;10.968;2024-01-11T13:55:11;-2.70;99.90
5834;DHT22;2943;48.012;10.968;2024-01-11T13:57:39;-2.70;99.90
5834;DHT22;2943;48.012;10.968;2024-01-11T14:00:08;-2.70;99.90
5834;DHT22;2943;48.012;10.968;2024-01-11T14:02:37;-2.60;99.90
5834;DHT22;2943;48.012;10.968;2024-01-11T14:05:07;-2.60;99.90
5834;DHT22;2943;48.012;10.968;2024-01-11T14:07:37;-2.50;99.90
5834;DHT22;2943;48.012;10.968;2024-01-11T14:10:05;-2.50;99.90
5834;DHT22;2943;48.012;10.968;2024-01-11T14:12:33;-2.50;99.90
5834;DHT22;2943;48.012;10.968;2024-01-11T14:15:02;-2.40;99.90
5834;DHT22;2943;48.012;10.968;2024-01-11T14:17:29;-2.50;99.90
5834;DHT22;2943;48.012;10.968;2024-01-11T14:19:56;-2.50;99.90
5834;DHT22;2943;48.012;10.968;2024-01-11T14:22:24;-2.50;99.90
5834;DHT22;2943;48.012;10.968;2024-01-11T14:24:51;-2.50;99.90
5834;DHT22;2943;48.012;10.968;2024-01-11T14:27:19;-2.40;99.90
5834;DHT22;2943;48.012;10.968;2024-01-11T14:29:46;-2.50;99.90
5834;DHT22;2943;48.012;10.968;2024-01-11T14:32:13;-2.50;99.90
5834;DHT22;2943;48.012;10.968;2024-01-11T14:34:46;-2.50;99.90
5834;DHT22;2943;48.012;10.968;2024-01-11T14:37:34;-2.60;99.90
5834;DHT22;2943;48.012;10.968;2024-01-11T14:40:05;-2.60;99.90
5834;DHT22;2943;48.012;10.968;2024-01-11T14:42:32;-2.70;99.90
5834;DHT22;2943;48.012;10.968;2024-01-11T14:44:59;-2.70;99.90
5834;DHT22;2943;48.012;10.968;2024-01-11T14:47:26;-2.80;99.90
5834;DHT22;2943;48.012;10.968;2024-01-11T14:49:52;-2.80;99.90
5834;DHT22;2943;48.012;10.968;2024-01-11T14:52:19;-2.90;99.90
5834;DHT22;2943;48.012;10.968;2024-01-11T14:54:48;-2.90;99.90
5834;DHT22;2943;48.012;10.968;2024-01-11T14:57:15;-3.00;99.90
5834;DHT22;2943;48.012;10.968;2024-01-11T14:59:42;-3.00;99.90
5834;DHT22;2943;48.012;10.968;2024-01-11T15:02:10;-3.00;99.90
5834;DHT22;2943;48.012;10.968;2024-01-11T15:04:37;-2.90;99.90
5834;DHT22;2943;48.012;10.968;2024-01-11T15:07:04;-3.00;99.90
5834;DHT22;2943;48.012;10.968;2024-01-11T15:09:31;-3.00;99.90
5834;DHT22;2943;48.012;10.968;2024-01-11T15:11:59;-3.00;99.90
5834;DHT22;2943;48.012;10.968;2024-01-11T15:14:26;-2.90;99.90
5834;DHT22;2943;48.012;10.968;2024-01-11T15:16:53;-2.90;99.90
5834;DHT22;2943;48.012;10.968;2024-01-11T15:19:20;-2.90;99.90
5834;DHT22;2943;48.012;10.968;2024-01-11T15:21:47;-2.90;99.90
5834;DHT22;2943;48.012;10.968;2024-01-11T15:24:14;-2.80;99.90
5834;DHT22;2943;48.012;10.968;2024-01-11T15:26:44;-2.80;99.90
5834;DHT22;2943;48.012;10.968;2024-01-11T15:29:12;-2.80;99.90
5834;DHT22;2943;48.012;10.968;2024-01-11T15:31:39;-2.80;99.90
5834;DHT22;2943;48.012;10.968;2024-01-11T15:34:08;-2.90;99.90
5834;DHT22;2943;48.012;10.968;2024-01-11T15:36:35;-2.90;99.90
5834;DHT22;2943;48.012;10.968;2024-01-11T15:39:06;-2.90;99.90
5834;DHT22;2943;48.012;10.968;2024-01-11T15:41:33;-2.90;99.90
5834;DHT22;2943;48.012;10.968;2024-01-11T15:44:00;-3.00;99.90
5834;DHT22;2943;48.012;10.968;2024-01-11T15:46:28;-3.00;99.90
5834;DHT22;2943;48.012;10.968;2024-01-11T15:48:55;-3.00;99.90